sensor_id;sensor_type;location;lat;lon;timestamp;P1;durP1;ratioP1;P2;durP2;ratioP2
83272;SDS011;73177;51.584;5.188;2024-01-27T00:01:36;17.50;;;5.93;;
83272;SDS011;73177;51.584;5.188;2024-01-27T00:04:01;13.40;;;6.28;;
83272;SDS011;73177;51.584;5.188;2024-01-27T00:06:27;15.02;;;5.78;;
83272;SDS011;73177;51.584;5.188;2024-01-27T00:08:52;21.42;;;5.88;;
83272;SDS011;73177;51.584;5.188;2024-01-27T00:11:17;15.73;;;5.25;;
83272;SDS011;73177;51.584;5.188;2024-01-27T00:13:44;12.80;;;5.65;;
83272;SDS011;73177;51.584;5.188;2024-01-27T00:16:09;26.65;;;5.80;;
83272;SDS011;73177;51.584;5.188;2024-01-27T00:18:37;18.50;;;6.00;;
83272;SDS011;73177;51.584;5.188;2024-01-27T00:21:03;14.65;;;5.15;;
83272;SDS011;73177;51.584;5.188;2024-01-27T00:23:28;17.42;;;5.40;;
83272;SDS011;73177;51.584;5.188;2024-01-27T00:25:54;21.80;;;6.13;;
83272;SDS011;73177;51.584;5.188;2024-01-27T00:28:19;20.87;;;5.87;;
83272;SDS011;73177;51.584;5.188;2024-01-27T00:30:44;14.80;;;5.17;;
83272;SDS011;73177;51.584;5.188;2024-01-27T00:33:09;22.80;;;5.73;;
83272;SDS011;73177;51.584;5.188;2024-01-27T00:35:34;16.40;;;6.00;;
83272;SDS011;73177;51.584;5.188;2024-01-27T00:38:00;21.50;;;5.60;;
83272;SDS011;73177;51.584;5.188;2024-01-27T00:40:25;17.07;;;5.47;;
83272;SDS011;73177;51.584;5.188;2024-01-27T00:42:50;14.13;;;5.05;;
83272;SDS011;73177;51.584;5.188;2024-01-27T00:45:16;14.43;;;4.70;;
83272;SDS011;73177;51.584;5.188;2024-01-27T00:47:41;15.47;;;5.43;;
83272;SDS011;73177;51.584;5.188;2024-01-27T00:50:06;17.33;;;5.90;;
83272;SDS011;73177;51.584;5.188;2024-01-27T00:52:33;13.13;;;5.53;;
83272;SDS011;73177;51.584;5.188;2024-01-27T00:54:59;19.70;;;5.35;;
83272;SDS011;73177;51.584;5.188;2024-01-27T00:57:24;14.83;;;5.40;;
83272;SDS011;73177;51.584;5.188;2024-01-27T00:59:49;11.93;;;5.00;;
83272;SDS011;73177;51.584;5.188;2024-01-27T01:02:15;36.70;;;5.82;;
83272;SDS011;73177;51.584;5.188;2024-01-27T01:04:40;16.33;;;5.17;;
83272;SDS011;73177;51.584;5.188;2024-01-27T01:07:07;18.38;;;5.03;;
83272;SDS011;73177;51.584;5.188;2024-01-27T01:09:33;14.00;;;5.57;;
83272;SDS011;73177;51.584;5.188;2024-01-27T01:11:58;23.27;;;6.20;;
83272;SDS011;73177;51.584;5.188;2024-01-27T01:14:23;21.13;;;6.40;;
83272;SDS011;73177;51.584;5.188;2024-01-27T01:16:48;25.50;;;5.50;;
83272;SDS011;73177;51.584;5.188;2024-01-27T01:19:14;16.33;;;5.40;;
83272;SDS011;73177;51.584;5.188;2024-01-27T01:21:39;17.33;;;5.93;;
83272;SDS011;73177;51.584;5.188;2024-01-27T01:24:04;18.33;;;6.45;;
83272;SDS011;73177;51.584;5.188;2024-01-27T01:26:30;18.20;;;6.03;;
83272;SDS011;73177;51.584;5.188;2024-01-27T01:28:55;14.95;;;5.75;;
83272;SDS011;73177;51.584;5.188;2024-01-27T01:31:20;16.23;;;5.57;;
83272;SDS011;73177;51.584;5.188;2024-01-27T01:33:46;17.05;;;5.75;;
83272;SDS011;73177;51.584;5.188;2024-01-27T01:36:11;11.60;;;5.30;;
83272;SDS011;73177;51.584;5.188;2024-01-27T01:38:36;16.80;;;6.90;;
83272;SDS011;73177;51.584;5.188;2024-01-27T01:41:02;19.88;;;5.32;;
83272;SDS011;73177;51.584;5.188;2024-01-27T01:43:27;24.40;;;6.82;;
83272;SDS011;73177;51.584;5.188;2024-01-27T01:45:52;17.70;;;6.23;;
83272;SDS011;73177;51.584;5.188;2024-01-27T01:48:21;16.65;;;6.35;;
83272;SDS011;73177;51.584;5.188;2024-01-27T01:50:46;22.38;;;6.25;;
83272;SDS011;73177;51.584;5.188;2024-01-27T01:53:12;17.27;;;6.25;;
83272;SDS011;73177;51.584;5.188;2024-01-27T01:55:37;18.92;;;5.90;;
83272;SDS011;73177;51.584;5.188;2024-01-27T01:58:03;14.40;;;5.83;;
83272;SDS011;73177;51.584;5.188;2024-01-27T02:00:28;14.77;;;6.57;;
83272;SDS011;73177;51.584;5.188;2024-01-27T02:02:53;16.38;;;6.25;;
83272;SDS011;73177;51.584;5.188;2024-01-27T02:05:19;14.40;;;6.63;;
83272;SDS011;73177;51.584;5.188;2024-01-27T02:07:44;30.07;;;7.40;;
83272;SDS011;73177;51.584;5.188;2024-01-27T02:10:13;17.40;;;5.67;;
83272;SDS011;73177;51.584;5.188;2024-01-27T02:12:40;19.25;;;6.47;;
83272;SDS011;73177;51.584;5.188;2024-01-27T02:15:09;20.92;;;5.88;;
83272;SDS011;73177;51.584;5.188;2024-01-27T02:17:34;14.20;;;6.55;;
83272;SDS011;73177;51.584;5.188;2024-01-27T02:19:59;17.92;;;7.10;;
83272;SDS011;73177;51.584;5.188;2024-01-27T02:22:25;19.58;;;6.32;;
83272;SDS011;73177;51.584;5.188;2024-01-27T02:24:50;16.37;;;6.37;;
83272;SDS011;73177;51.584;5.188;2024-01-27T02:27:16;29.40;;;7.67;;
83272;SDS011;73177;51.584;5.188;2024-01-27T02:29:41;20.03;;;7.43;;
83272;SDS011;73177;51.584;5.188;2024-01-27T02:32:06;16.80;;;6.33;;
83272;SDS011;73177;51.584;5.188;2024-01-27T02:34:31;18.23;;;6.17;;
83272;SDS011;73177;51.584;5.188;2024-01-27T02:36:56;15.87;;;5.97;;
83272;SDS011;73177;51.584;5.188;2024-01-27T02:39:22;22.00;;;7.33;;
83272;SDS011;73177;51.584;5.188;2024-01-27T02:41:47;18.07;;;6.73;;
83272;SDS011;73177;51.584;5.188;2024-01-27T02:44:12;19.92;;;7.03;;
83272;SDS011;73177;51.584;5.188;2024-01-27T02:46:38;22.67;;;6.07;;
83272;SDS011;73177;51.584;5.188;2024-01-27T02:49:03;14.60;;;7.33;;
83272;SDS011;73177;51.584;5.188;2024-01-27T02:51:28;21.63;;;7.30;;
83272;SDS011;73177;51.584;5.188;2024-01-27T02:53:53;22.73;;;7.43;;
83272;SDS011;73177;51.584;5.188;2024-01-27T02:56:18;18.87;;;7.83;;
83272;SDS011;73177;51.584;5.188;2024-01-27T02:58:44;20.13;;;6.60;;
83272;SDS011;73177;51.584;5.188;2024-01-27T03:01:09;15.32;;;7.88;;
83272;SDS011;73177;51.584;5.188;2024-01-27T03:03:34;26.53;;;7.00;;
83272;SDS011;73177;51.584;5.188;2024-01-27T03:06:00;21.10;;;7.73;;
83272;SDS011;73177;51.584;5.188;2024-01-27T03:08:26;22.37;;;6.63;;
83272;SDS011;73177;51.584;5.188;2024-01-27T03:13:16;21.45;;;6.63;;
83272;SDS011;73177;51.584;5.188;2024-01-27T03:15:43;27.70;;;8.13;;
83272;SDS011;73177;51.584;5.188;2024-01-27T03:18:09;17.53;;;6.43;;
83272;SDS011;73177;51.584;5.188;2024-01-27T03:20:34;14.13;;;6.80;;
83272;SDS011;73177;51.584;5.188;2024-01-27T03:22:59;21.83;;;6.90;;
83272;SDS011;73177;51.584;5.188;2024-01-27T03:25:24;19.50;;;7.97;;
83272;SDS011;73177;51.584;5.188;2024-01-27T03:27:50;19.10;;;7.47;;
83272;SDS011;73177;51.584;5.188;2024-01-27T03:30:16;15.45;;;7.15;;
83272;SDS011;73177;51.584;5.188;2024-01-27T03:32:41;21.27;;;7.37;;
83272;SDS011;73177;51.584;5.188;2024-01-27T03:35:07;14.45;;;6.65;;
83272;SDS011;73177;51.584;5.188;2024-01-27T03:37:32;19.73;;;7.93;;
83272;SDS011;73177;51.584;5.188;2024-01-27T03:39:58;15.20;;;7.65;;
83272;SDS011;73177;51.584;5.188;2024-01-27T03:42:23;21.23;;;6.93;;
83272;SDS011;73177;51.584;5.188;2024-01-27T03:44:49;23.50;;;6.65;;
83272;SDS011;73177;51.584;5.188;2024-01-27T03:47:14;17.17;;;8.03;;
83272;SDS011;73177;51.584;5.188;2024-01-27T03:49:39;21.83;;;7.43;;
83272;SDS011;73177;51.584;5.188;2024-01-27T03:52:05;19.13;;;7.70;;
83272;SDS011;73177;51.584;5.188;2024-01-27T03:54:30;20.40;;;7.70;;
83272;SDS011;73177;51.584;5.188;2024-01-27T03:56:55;24.98;;;8.55;;
83272;SDS011;73177;51.584;5.188;2024-01-27T03:59:21;14.47;;;6.40;;
83272;SDS011;73177;51.584;5.188;2024-01-27T04:01:46;27.07;;;6.87;;
83272;SDS011;73177;51.584;5.188;2024-01-27T04:04:12;19.38;;;7.97;;
83272;SDS011;73177;51.584;5.188;2024-01-27T04:06:39;26.40;;;8.60;;
83272;SDS011;73177;51.584;5.188;2024-01-27T04:11:29;16.65;;;7.65;;
83272;SDS011;73177;51.584;5.188;2024-01-27T04:13:54;17.83;;;8.00;;
83272;SDS011;73177;51.584;5.188;2024-01-27T04:16:20;22.33;;;8.18;;
83272;SDS011;73177;51.584;5.188;2024-01-27T04:18:46;19.13;;;7.50;;
83272;SDS011;73177;51.584;5.188;2024-01-27T04:21:11;17.15;;;7.15;;
83272;SDS011;73177;51.584;5.188;2024-01-27T04:23:36;19.77;;;8.00;;
83272;SDS011;73177;51.584;5.188;2024-01-27T04:26:02;18.90;;;6.90;;
83272;SDS011;73177;51.584;5.188;2024-01-27T04:28:27;21.80;;;7.43;;
83272;SDS011;73177;51.584;5.188;2024-01-27T04:30:54;29.13;;;8.27;;
83272;SDS011;73177;51.584;5.188;2024-01-27T04:33:20;15.83;;;7.60;;
83272;SDS011;73177;51.584;5.188;2024-01-27T04:35:45;21.27;;;7.10;;
83272;SDS011;73177;51.584;5.188;2024-01-27T04:38:10;19.37;;;8.10;;
83272;SDS011;73177;51.584;5.188;2024-01-27T04:40:36;20.57;;;7.77;;
83272;SDS011;73177;51.584;5.188;2024-01-27T04:43:01;17.92;;;7.82;;
83272;SDS011;73177;51.584;5.188;2024-01-27T04:47:53;12.18;;;6.20;;
83272;SDS011;73177;51.584;5.188;2024-01-27T04:50:19;23.40;;;7.80;;
83272;SDS011;73177;51.584;5.188;2024-01-27T04:52:44;20.92;;;8.65;;
83272;SDS011;73177;51.584;5.188;2024-01-27T04:55:09;17.52;;;7.68;;
83272;SDS011;73177;51.584;5.188;2024-01-27T04:57:35;20.50;;;7.27;;
83272;SDS011;73177;51.584;5.188;2024-01-27T05:00:00;26.17;;;8.53;;
83272;SDS011;73177;51.584;5.188;2024-01-27T05:02:25;23.10;;;9.25;;
83272;SDS011;73177;51.584;5.188;2024-01-27T05:04:51;30.80;;;8.73;;
83272;SDS011;73177;51.584;5.188;2024-01-27T05:07:16;30.60;;;8.57;;
83272;SDS011;73177;51.584;5.188;2024-01-27T05:09:41;20.88;;;8.13;;
83272;SDS011;73177;51.584;5.188;2024-01-27T05:12:07;26.23;;;8.47;;
83272;SDS011;73177;51.584;5.188;2024-01-27T05:14:32;26.53;;;9.13;;
83272;SDS011;73177;51.584;5.188;2024-01-27T05:16:57;19.33;;;8.80;;
83272;SDS011;73177;51.584;5.188;2024-01-27T05:19:23;19.87;;;7.80;;
83272;SDS011;73177;51.584;5.188;2024-01-27T05:21:48;17.23;;;8.40;;
83272;SDS011;73177;51.584;5.188;2024-01-27T05:24:13;24.88;;;8.57;;
83272;SDS011;73177;51.584;5.188;2024-01-27T05:26:38;16.07;;;7.57;;
83272;SDS011;73177;51.584;5.188;2024-01-27T05:29:04;18.93;;;8.37;;
83272;SDS011;73177;51.584;5.188;2024-01-27T05:31:29;21.83;;;8.70;;
83272;SDS011;73177;51.584;5.188;2024-01-27T05:33:54;18.80;;;9.07;;
83272;SDS011;73177;51.584;5.188;2024-01-27T05:36:20;28.23;;;9.63;;
83272;SDS011;73177;51.584;5.188;2024-01-27T05:38:45;31.60;;;9.67;;
83272;SDS011;73177;51.584;5.188;2024-01-27T05:41:10;21.83;;;9.67;;
83272;SDS011;73177;51.584;5.188;2024-01-27T05:43:36;25.20;;;9.27;;
83272;SDS011;73177;51.584;5.188;2024-01-27T05:46:02;18.75;;;9.05;;
83272;SDS011;73177;51.584;5.188;2024-01-27T05:48:27;25.50;;;9.15;;
83272;SDS011;73177;51.584;5.188;2024-01-27T05:50:59;26.47;;;9.83;;
83272;SDS011;73177;51.584;5.188;2024-01-27T05:53:24;29.13;;;8.32;;
83272;SDS011;73177;51.584;5.188;2024-01-27T05:55:50;26.50;;;10.68;;
83272;SDS011;73177;51.584;5.188;2024-01-27T05:58:15;22.48;;;9.35;;
83272;SDS011;73177;51.584;5.188;2024-01-27T06:00:42;26.67;;;9.53;;
83272;SDS011;73177;51.584;5.188;2024-01-27T06:03:07;24.80;;;10.70;;
83272;SDS011;73177;51.584;5.188;2024-01-27T06:05:33;25.47;;;10.23;;
83272;SDS011;73177;51.584;5.188;2024-01-27T06:07:58;28.40;;;9.47;;
83272;SDS011;73177;51.584;5.188;2024-01-27T06:10:23;27.03;;;10.43;;
83272;SDS011;73177;51.584;5.188;2024-01-27T06:12:49;21.92;;;9.55;;
83272;SDS011;73177;51.584;5.188;2024-01-27T06:15:15;29.55;;;12.15;;
83272;SDS011;73177;51.584;5.188;2024-01-27T06:17:41;22.80;;;10.50;;
83272;SDS011;73177;51.584;5.188;2024-01-27T06:20:06;23.23;;;10.50;;
83272;SDS011;73177;51.584;5.188;2024-01-27T06:22:32;24.08;;;10.52;;
83272;SDS011;73177;51.584;5.188;2024-01-27T06:24:57;26.92;;;9.93;;
83272;SDS011;73177;51.584;5.188;2024-01-27T06:27:23;31.37;;;10.47;;
83272;SDS011;73177;51.584;5.188;2024-01-27T06:29:48;25.93;;;10.03;;
83272;SDS011;73177;51.584;5.188;2024-01-27T06:32:13;26.73;;;10.23;;
83272;SDS011;73177;51.584;5.188;2024-01-27T06:34:38;28.43;;;11.97;;
83272;SDS011;73177;51.584;5.188;2024-01-27T06:37:04;30.37;;;12.27;;
83272;SDS011;73177;51.584;5.188;2024-01-27T06:39:30;25.10;;;10.20;;
83272;SDS011;73177;51.584;5.188;2024-01-27T06:41:55;20.47;;;11.40;;
83272;SDS011;73177;51.584;5.188;2024-01-27T06:44:20;24.27;;;10.97;;
83272;SDS011;73177;51.584;5.188;2024-01-27T06:46:45;25.77;;;10.53;;
83272;SDS011;73177;51.584;5.188;2024-01-27T06:49:14;24.52;;;10.32;;
83272;SDS011;73177;51.584;5.188;2024-01-27T06:51:39;30.30;;;11.00;;
83272;SDS011;73177;51.584;5.188;2024-01-27T06:54:05;27.23;;;11.30;;
83272;SDS011;73177;51.584;5.188;2024-01-27T06:56:30;22.00;;;10.57;;
83272;SDS011;73177;51.584;5.188;2024-01-27T06:58:55;29.83;;;10.50;;
83272;SDS011;73177;51.584;5.188;2024-01-27T07:01:20;23.80;;;10.53;;
83272;SDS011;73177;51.584;5.188;2024-01-27T07:03:46;24.33;;;10.90;;
83272;SDS011;73177;51.584;5.188;2024-01-27T07:06:11;24.67;;;11.67;;
83272;SDS011;73177;51.584;5.188;2024-01-27T07:08:36;30.43;;;11.33;;
83272;SDS011;73177;51.584;5.188;2024-01-27T07:11:02;26.58;;;12.00;;
83272;SDS011;73177;51.584;5.188;2024-01-27T07:13:27;25.27;;;12.67;;
83272;SDS011;73177;51.584;5.188;2024-01-27T07:15:55;24.95;;;11.20;;
83272;SDS011;73177;51.584;5.188;2024-01-27T07:18:20;27.55;;;11.88;;
83272;SDS011;73177;51.584;5.188;2024-01-27T07:20:47;33.50;;;12.00;;
83272;SDS011;73177;51.584;5.188;2024-01-27T07:23:12;33.10;;;11.50;;
83272;SDS011;73177;51.584;5.188;2024-01-27T07:25:37;24.00;;;11.70;;
83272;SDS011;73177;51.584;5.188;2024-01-27T07:28:03;30.53;;;12.87;;
83272;SDS011;73177;51.584;5.188;2024-01-27T07:30:28;33.70;;;12.27;;
83272;SDS011;73177;51.584;5.188;2024-01-27T07:32:54;31.70;;;13.77;;
83272;SDS011;73177;51.584;5.188;2024-01-27T07:35:20;29.57;;;12.87;;
83272;SDS011;73177;51.584;5.188;2024-01-27T07:37:45;25.23;;;13.95;;
83272;SDS011;73177;51.584;5.188;2024-01-27T07:40:10;31.00;;;12.00;;
83272;SDS011;73177;51.584;5.188;2024-01-27T07:42:36;23.05;;;11.50;;
83272;SDS011;73177;51.584;5.188;2024-01-27T07:45:01;27.37;;;11.70;;
83272;SDS011;73177;51.584;5.188;2024-01-27T07:47:26;26.13;;;13.00;;
83272;SDS011;73177;51.584;5.188;2024-01-27T07:49:52;31.07;;;12.40;;
83272;SDS011;73177;51.584;5.188;2024-01-27T07:52:18;32.75;;;13.73;;
83272;SDS011;73177;51.584;5.188;2024-01-27T07:54:43;40.70;;;12.98;;
83272;SDS011;73177;51.584;5.188;2024-01-27T07:57:08;31.70;;;13.13;;
83272;SDS011;73177;51.584;5.188;2024-01-27T07:59:34;22.17;;;12.03;;
83272;SDS011;73177;51.584;5.188;2024-01-27T08:01:59;27.10;;;12.70;;
83272;SDS011;73177;51.584;5.188;2024-01-27T08:04:25;24.70;;;12.63;;
83272;SDS011;73177;51.584;5.188;2024-01-27T08:06:50;31.40;;;14.35;;
83272;SDS011;73177;51.584;5.188;2024-01-27T08:09:16;32.85;;;12.35;;
83272;SDS011;73177;51.584;5.188;2024-01-27T08:11:41;34.72;;;12.57;;
83272;SDS011;73177;51.584;5.188;2024-01-27T08:14:07;28.27;;;11.90;;
83272;SDS011;73177;51.584;5.188;2024-01-27T08:16:32;33.78;;;13.57;;
83272;SDS011;73177;51.584;5.188;2024-01-27T08:18:57;30.20;;;12.93;;
83272;SDS011;73177;51.584;5.188;2024-01-27T08:21:22;25.77;;;11.63;;
83272;SDS011;73177;51.584;5.188;2024-01-27T08:23:48;21.83;;;12.43;;
83272;SDS011;73177;51.584;5.188;2024-01-27T08:26:13;24.90;;;10.50;;
83272;SDS011;73177;51.584;5.188;2024-01-27T08:28:38;25.93;;;13.23;;
83272;SDS011;73177;51.584;5.188;2024-01-27T08:31:04;35.80;;;12.43;;
83272;SDS011;73177;51.584;5.188;2024-01-27T08:33:29;32.42;;;13.57;;
83272;SDS011;73177;51.584;5.188;2024-01-27T08:35:55;26.95;;;11.93;;
83272;SDS011;73177;51.584;5.188;2024-01-27T08:38:20;28.42;;;11.93;;
83272;SDS011;73177;51.584;5.188;2024-01-27T08:40:45;32.72;;;12.13;;
83272;SDS011;73177;51.584;5.188;2024-01-27T08:43:11;31.10;;;13.73;;
83272;SDS011;73177;51.584;5.188;2024-01-27T08:45:39;25.97;;;11.30;;
83272;SDS011;73177;51.584;5.188;2024-01-27T08:48:05;29.15;;;12.32;;
83272;SDS011;73177;51.584;5.188;2024-01-27T08:50:30;32.67;;;12.50;;
83272;SDS011;73177;51.584;5.188;2024-01-27T08:52:55;41.67;;;12.63;;
83272;SDS011;73177;51.584;5.188;2024-01-27T08:55:21;29.05;;;10.88;;
83272;SDS011;73177;51.584;5.188;2024-01-27T08:57:49;21.73;;;11.10;;
83272;SDS011;73177;51.584;5.188;2024-01-27T09:00:14;19.85;;;9.95;;
83272;SDS011;73177;51.584;5.188;2024-01-27T09:02:41;27.10;;;10.23;;
83272;SDS011;73177;51.584;5.188;2024-01-27T09:05:08;30.20;;;12.27;;
83272;SDS011;73177;51.584;5.188;2024-01-27T09:07:34;22.40;;;10.85;;
83272;SDS011;73177;51.584;5.188;2024-01-27T09:09:59;27.97;;;11.03;;
83272;SDS011;73177;51.584;5.188;2024-01-27T09:12:25;23.70;;;10.93;;
83272;SDS011;73177;51.584;5.188;2024-01-27T09:14:50;14.38;;;7.90;;
83272;SDS011;73177;51.584;5.188;2024-01-27T09:17:15;15.63;;;7.10;;
83272;SDS011;73177;51.584;5.188;2024-01-27T09:19:41;17.42;;;7.75;;
83272;SDS011;73177;51.584;5.188;2024-01-27T09:22:07;29.38;;;6.53;;
83272;SDS011;73177;51.584;5.188;2024-01-27T09:24:32;19.57;;;7.63;;
83272;SDS011;73177;51.584;5.188;2024-01-27T09:26:57;17.00;;;7.53;;
83272;SDS011;73177;51.584;5.188;2024-01-27T09:29:23;21.63;;;7.25;;
83272;SDS011;73177;51.584;5.188;2024-01-27T09:31:48;19.47;;;6.70;;
83272;SDS011;73177;51.584;5.188;2024-01-27T09:34:13;16.52;;;6.95;;
83272;SDS011;73177;51.584;5.188;2024-01-27T09:36:38;13.35;;;6.43;;
83272;SDS011;73177;51.584;5.188;2024-01-27T09:39:04;16.73;;;6.90;;
83272;SDS011;73177;51.584;5.188;2024-01-27T09:41:30;16.93;;;6.10;;
83272;SDS011;73177;51.584;5.188;2024-01-27T09:43:56;13.05;;;6.18;;
83272;SDS011;73177;51.584;5.188;2024-01-27T09:46:24;12.00;;;5.40;;
83272;SDS011;73177;51.584;5.188;2024-01-27T09:48:49;13.98;;;6.30;;
83272;SDS011;73177;51.584;5.188;2024-01-27T09:51:15;11.97;;;5.30;;
83272;SDS011;73177;51.584;5.188;2024-01-27T09:53:41;11.43;;;5.60;;
83272;SDS011;73177;51.584;5.188;2024-01-27T09:56:06;17.90;;;6.00;;
83272;SDS011;73177;51.584;5.188;2024-01-27T09:58:31;15.38;;;5.22;;
83272;SDS011;73177;51.584;5.188;2024-01-27T10:00:57;13.38;;;4.95;;
83272;SDS011;73177;51.584;5.188;2024-01-27T10:03:24;14.52;;;4.95;;
83272;SDS011;73177;51.584;5.188;2024-01-27T10:05:50;18.73;;;5.90;;
83272;SDS011;73177;51.584;5.188;2024-01-27T10:08:16;17.38;;;6.10;;
83272;SDS011;73177;51.584;5.188;2024-01-27T10:10:41;16.10;;;5.32;;
83272;SDS011;73177;51.584;5.188;2024-01-27T10:13:07;18.90;;;6.00;;
83272;SDS011;73177;51.584;5.188;2024-01-27T10:15:34;20.60;;;5.47;;
83272;SDS011;73177;51.584;5.188;2024-01-27T10:18:06;19.83;;;6.72;;
83272;SDS011;73177;51.584;5.188;2024-01-27T10:20:32;13.73;;;5.75;;
83272;SDS011;73177;51.584;5.188;2024-01-27T10:22:57;9.30;;;5.00;;
83272;SDS011;73177;51.584;5.188;2024-01-27T10:27:47;10.38;;;4.55;;
83272;SDS011;73177;51.584;5.188;2024-01-27T10:30:17;16.80;;;5.47;;
83272;SDS011;73177;51.584;5.188;2024-01-27T10:32:43;10.63;;;4.30;;
83272;SDS011;73177;51.584;5.188;2024-01-27T10:35:08;16.33;;;4.90;;
83272;SDS011;73177;51.584;5.188;2024-01-27T10:40:02;13.95;;;5.13;;
83272;SDS011;73177;51.584;5.188;2024-01-27T10:42:28;12.63;;;4.78;;
83272;SDS011;73177;51.584;5.188;2024-01-27T10:44:55;21.98;;;5.15;;
83272;SDS011;73177;51.584;5.188;2024-01-27T10:47:23;15.10;;;4.97;;
83272;SDS011;73177;51.584;5.188;2024-01-27T10:49:50;15.82;;;5.40;;
83272;SDS011;73177;51.584;5.188;2024-01-27T10:52:15;12.73;;;5.30;;
83272;SDS011;73177;51.584;5.188;2024-01-27T10:54:43;26.77;;;8.00;;
83272;SDS011;73177;51.584;5.188;2024-01-27T10:57:08;20.50;;;4.60;;
83272;SDS011;73177;51.584;5.188;2024-01-27T11:02:00;15.20;;;5.60;;
83272;SDS011;73177;51.584;5.188;2024-01-27T11:04:25;14.30;;;4.85;;
83272;SDS011;73177;51.584;5.188;2024-01-27T11:06:51;14.85;;;4.63;;
83272;SDS011;73177;51.584;5.188;2024-01-27T11:09:19;11.60;;;3.93;;
83272;SDS011;73177;51.584;5.188;2024-01-27T11:11:45;12.07;;;4.72;;
83272;SDS011;73177;51.584;5.188;2024-01-27T11:14:11;16.58;;;4.88;;
83272;SDS011;73177;51.584;5.188;2024-01-27T11:16:37;16.92;;;5.05;;
83272;SDS011;73177;51.584;5.188;2024-01-27T11:19:09;14.50;;;4.70;;
83272;SDS011;73177;51.584;5.188;2024-01-27T11:21:35;14.02;;;4.75;;
83272;SDS011;73177;51.584;5.188;2024-01-27T11:24:00;18.23;;;4.63;;
83272;SDS011;73177;51.584;5.188;2024-01-27T11:26:26;15.32;;;4.47;;
83272;SDS011;73177;51.584;5.188;2024-01-27T11:28:51;15.53;;;4.13;;
83272;SDS011;73177;51.584;5.188;2024-01-27T11:31:19;11.65;;;4.43;;
83272;SDS011;73177;51.584;5.188;2024-01-27T11:33:46;22.60;;;4.60;;
83272;SDS011;73177;51.584;5.188;2024-01-27T11:36:21;20.38;;;4.53;;
83272;SDS011;73177;51.584;5.188;2024-01-27T11:38:47;11.55;;;4.20;;
83272;SDS011;73177;51.584;5.188;2024-01-27T11:41:13;13.00;;;4.45;;
83272;SDS011;73177;51.584;5.188;2024-01-27T11:43:38;15.47;;;4.13;;
83272;SDS011;73177;51.584;5.188;2024-01-27T11:46:03;15.80;;;4.73;;
83272;SDS011;73177;51.584;5.188;2024-01-27T11:48:28;14.67;;;4.40;;
83272;SDS011;73177;51.584;5.188;2024-01-27T11:51:27;13.82;;;3.60;;
83272;SDS011;73177;51.584;5.188;2024-01-27T11:53:48;17.30;;;5.03;;
83272;SDS011;73177;51.584;5.188;2024-01-27T11:56:13;14.27;;;4.40;;
83272;SDS011;73177;51.584;5.188;2024-01-27T11:58:45;16.35;;;5.35;;
83272;SDS011;73177;51.584;5.188;2024-01-27T12:01:11;13.95;;;4.97;;
83272;SDS011;73177;51.584;5.188;2024-01-27T12:03:36;12.70;;;4.13;;
83272;SDS011;73177;51.584;5.188;2024-01-27T12:06:01;11.43;;;4.60;;
83272;SDS011;73177;51.584;5.188;2024-01-27T12:08:27;19.30;;;5.10;;
83272;SDS011;73177;51.584;5.188;2024-01-27T12:10:53;13.18;;;4.47;;
83272;SDS011;73177;51.584;5.188;2024-01-27T12:13:18;15.73;;;4.90;;
83272;SDS011;73177;51.584;5.188;2024-01-27T12:15:43;14.95;;;4.40;;
83272;SDS011;73177;51.584;5.188;2024-01-27T12:18:09;13.50;;;5.25;;
83272;SDS011;73177;51.584;5.188;2024-01-27T12:20:34;14.93;;;4.63;;
83272;SDS011;73177;51.584;5.188;2024-01-27T12:23:03;18.00;;;5.07;;
83272;SDS011;73177;51.584;5.188;2024-01-27T12:25:28;18.70;;;4.63;;
83272;SDS011;73177;51.584;5.188;2024-01-27T12:27:54;16.97;;;4.90;;
83272;SDS011;73177;51.584;5.188;2024-01-27T12:30:21;17.13;;;3.92;;
83272;SDS011;73177;51.584;5.188;2024-01-27T12:32:46;18.15;;;5.28;;
83272;SDS011;73177;51.584;5.188;2024-01-27T12:35:11;18.20;;;4.13;;
83272;SDS011;73177;51.584;5.188;2024-01-27T12:37:37;11.15;;;4.30;;
83272;SDS011;73177;51.584;5.188;2024-01-27T12:40:03;11.97;;;3.47;;
83272;SDS011;73177;51.584;5.188;2024-01-27T12:42:41;13.02;;;3.65;;
83272;SDS011;73177;51.584;5.188;2024-01-27T12:45:07;17.10;;;3.77;;
83272;SDS011;73177;51.584;5.188;2024-01-27T12:47:33;18.10;;;4.28;;
83272;SDS011;73177;51.584;5.188;2024-01-27T12:49:58;9.30;;;2.67;;
83272;SDS011;73177;51.584;5.188;2024-01-27T12:52:23;15.13;;;4.07;;
83272;SDS011;73177;51.584;5.188;2024-01-27T12:54:49;12.48;;;3.42;;
83272;SDS011;73177;51.584;5.188;2024-01-27T12:57:15;13.70;;;3.58;;
83272;SDS011;73177;51.584;5.188;2024-01-27T12:59:42;13.38;;;3.92;;
83272;SDS011;73177;51.584;5.188;2024-01-27T13:02:07;20.00;;;4.20;;
83272;SDS011;73177;51.584;5.188;2024-01-27T13:04:33;9.27;;;2.88;;
83272;SDS011;73177;51.584;5.188;2024-01-27T13:06:58;12.35;;;3.45;;
83272;SDS011;73177;51.584;5.188;2024-01-27T13:11:49;14.45;;;3.60;;
83272;SDS011;73177;51.584;5.188;2024-01-27T13:14:15;16.33;;;3.63;;
83272;SDS011;73177;51.584;5.188;2024-01-27T13:16:42;10.85;;;2.95;;
83272;SDS011;73177;51.584;5.188;2024-01-27T13:19:08;14.50;;;3.42;;
83272;SDS011;73177;51.584;5.188;2024-01-27T13:21:33;15.43;;;4.10;;
83272;SDS011;73177;51.584;5.188;2024-01-27T13:23:58;15.13;;;3.40;;
83272;SDS011;73177;51.584;5.188;2024-01-27T13:26:24;14.63;;;3.03;;
83272;SDS011;73177;51.584;5.188;2024-01-27T13:28:49;19.13;;;2.77;;
83272;SDS011;73177;51.584;5.188;2024-01-27T13:31:15;10.50;;;3.53;;
83272;SDS011;73177;51.584;5.188;2024-01-27T13:33:40;17.77;;;3.92;;
83272;SDS011;73177;51.584;5.188;2024-01-27T13:36:05;10.68;;;3.13;;
83272;SDS011;73177;51.584;5.188;2024-01-27T13:38:31;11.95;;;3.08;;
83272;SDS011;73177;51.584;5.188;2024-01-27T13:40:56;12.03;;;3.23;;
83272;SDS011;73177;51.584;5.188;2024-01-27T13:43:21;10.00;;;2.97;;
83272;SDS011;73177;51.584;5.188;2024-01-27T13:45:46;17.13;;;4.22;;
83272;SDS011;73177;51.584;5.188;2024-01-27T13:48:13;6.90;;;2.85;;
83272;SDS011;73177;51.584;5.188;2024-01-27T13:50:38;11.75;;;3.85;;
83272;SDS011;73177;51.584;5.188;2024-01-27T13:53:03;13.53;;;3.07;;
83272;SDS011;73177;51.584;5.188;2024-01-27T13:55:30;15.93;;;4.18;;
83272;SDS011;73177;51.584;5.188;2024-01-27T13:57:55;13.23;;;3.87;;
83272;SDS011;73177;51.584;5.188;2024-01-27T14:00:21;14.70;;;3.38;;
83272;SDS011;73177;51.584;5.188;2024-01-27T14:02:46;12.50;;;3.75;;
83272;SDS011;73177;51.584;5.188;2024-01-27T14:05:12;8.68;;;3.03;;
83272;SDS011;73177;51.584;5.188;2024-01-27T14:07:37;12.98;;;3.47;;
83272;SDS011;73177;51.584;5.188;2024-01-27T14:10:03;15.52;;;3.58;;
83272;SDS011;73177;51.584;5.188;2024-01-27T14:12:28;18.00;;;3.23;;
83272;SDS011;73177;51.584;5.188;2024-01-27T14:15:01;19.80;;;3.80;;
83272;SDS011;73177;51.584;5.188;2024-01-27T14:17:26;8.13;;;2.47;;
83272;SDS011;73177;51.584;5.188;2024-01-27T14:19:51;12.47;;;3.23;;
83272;SDS011;73177;51.584;5.188;2024-01-27T14:22:17;17.15;;;3.20;;
83272;SDS011;73177;51.584;5.188;2024-01-27T14:24:42;12.67;;;2.70;;
83272;SDS011;73177;51.584;5.188;2024-01-27T14:27:08;9.17;;;2.93;;
83272;SDS011;73177;51.584;5.188;2024-01-27T14:29:33;15.17;;;3.23;;
83272;SDS011;73177;51.584;5.188;2024-01-27T14:31:59;13.00;;;3.70;;
83272;SDS011;73177;51.584;5.188;2024-01-27T14:34:25;18.43;;;3.73;;
83272;SDS011;73177;51.584;5.188;2024-01-27T14:36:50;15.87;;;4.10;;
83272;SDS011;73177;51.584;5.188;2024-01-27T14:39:15;8.80;;;3.90;;